createdAt,value
2019-04-01T00:01:42.552Z,95.90
2019-04-01T00:04:11.379Z,95.90
2019-04-01T00:06:40.252Z,95.90
2019-04-01T00:09:09.035Z,96.00
2019-04-01T00:11:37.871Z,96.00
2019-04-01T00:14:06.816Z,96.10
2019-04-01T00:16:36.586Z,96.10
2019-04-01T00:19:05.752Z,96.10
2019-04-01T00:21:34.683Z,95.80
2019-04-01T00:24:03.612Z,96.30
2019-04-01T00:26:32.955Z,96.20
2019-04-01T00:29:01.874Z,96.20
2019-04-01T00:31:30.725Z,96.40
2019-04-01T00:33:59.591Z,96.20
2019-04-01T00:36:29.133Z,96.20
2019-04-01T00:38:57.954Z,96.20
2019-04-01T00:41:26.758Z,96.00
2019-04-01T00:43:57.307Z,95.80
2019-04-01T00:46:26.332Z,96.10
2019-04-01T00:48:55.233Z,96.10
2019-04-01T00:51:24.011Z,96.10
2019-04-01T00:53:52.835Z,96.10
2019-04-01T00:56:21.662Z,96.10
2019-04-01T00:58:50.527Z,96.10
2019-04-01T01:01:19.433Z,96.20
2019-04-01T01:03:48.295Z,96.30
2019-04-01T01:06:17.093Z,96.30
2019-04-01T01:08:45.903Z,96.30
2019-04-01T01:11:14.728Z,96.40
2019-04-01T01:13:43.554Z,96.40
2019-04-01T01:16:12.359Z,96.40
2019-04-01T01:18:41.231Z,96.40
2019-04-01T01:21:10.054Z,96.50
2019-04-01T01:23:38.873Z,96.50
2019-04-01T01:26:07.849Z,96.60
2019-04-01T01:28:36.712Z,96.60
2019-04-01T01:31:05.498Z,96.60
2019-04-01T01:33:34.355Z,96.70
2019-04-01T01:36:03.183Z,96.80
2019-04-01T01:38:31.984Z,96.80
2019-04-01T01:41:00.942Z,96.90
2019-04-01T01:43:29.770Z,96.90
2019-04-01T01:45:58.541Z,97.10
2019-04-01T01:48:27.387Z,97.20
2019-04-01T01:50:56.695Z,97.20
2019-04-01T01:53:25.516Z,97.40
2019-04-01T01:55:54.344Z,97.40
2019-04-01T01:58:23.172Z,97.40
2019-04-01T02:00:53.486Z,97.50
2019-04-01T02:03:22.326Z,97.30
2019-04-01T02:05:52.607Z,97.40
2019-04-01T02:08:21.411Z,97.40
2019-04-01T02:10:50.246Z,97.40
2019-04-01T02:13:20.113Z,97.50
2019-04-01T02:15:49.197Z,97.50
2019-04-01T02:18:18.030Z,97.50
2019-04-01T02:20:46.839Z,97.60
2019-04-01T02:23:15.653Z,97.60
2019-04-01T02:25:45.578Z,97.60
2019-04-01T02:28:14.413Z,97.60
2019-04-01T02:30:43.187Z,97.50
2019-04-01T02:33:12.115Z,97.50
2019-04-01T02:35:40.923Z,97.70
2019-04-01T02:38:09.827Z,97.30
2019-04-01T02:40:38.768Z,97.30
2019-04-01T02:43:19.611Z,97.50
2019-04-01T02:45:48.450Z,97.60
2019-04-01T02:48:17.323Z,97.20
2019-04-01T02:50:46.087Z,97.40
2019-04-01T02:53:14.909Z,97.40
2019-04-01T02:55:43.722Z,97.60
2019-04-01T02:58:12.532Z,97.80
2019-04-01T03:00:41.373Z,98.10
2019-04-01T03:03:10.176Z,97.90
2019-04-01T03:05:38.995Z,97.90
2019-04-01T03:08:08.044Z,98.00
2019-04-01T03:10:36.860Z,97.60
2019-04-01T03:13:05.847Z,98.20
2019-04-01T03:15:34.637Z,98.10
2019-04-01T03:18:03.430Z,98.00
2019-04-01T03:20:32.231Z,97.70
2019-04-01T03:23:01.206Z,97.70
2019-04-01T03:25:30.006Z,97.70
2019-04-01T03:27:59.013Z,97.60
2019-04-01T03:30:27.928Z,97.30
2019-04-01T03:32:58.666Z,97.50
2019-04-01T03:35:27.196Z,97.50
2019-04-01T03:37:56.027Z,97.90
2019-04-01T03:40:24.833Z,98.00
2019-04-01T03:42:53.646Z,97.90
2019-04-01T03:45:22.497Z,97.90
2019-04-01T03:47:51.290Z,97.90
2019-04-01T03:50:20.100Z,97.70
2019-04-01T03:52:48.937Z,97.30
2019-04-01T03:55:17.901Z,97.30
2019-04-01T03:57:46.708Z,97.20
2019-04-01T04:00:15.631Z,97.10
2019-04-01T04:02:44.427Z,97.00
2019-04-01T04:05:13.246Z,96.90
2019-04-01T04:07:42.092Z,96.80
2019-04-01T04:10:11.099Z,96.70
2019-04-01T04:12:39.937Z,96.50
2019-04-01T04:15:08.980Z,96.40
2019-04-01T04:17:37.770Z,96.30
2019-04-01T04:20:06.770Z,96.30
2019-04-01T04:22:35.598Z,96.30
2019-04-01T04:25:06.111Z,96.30
2019-04-01T04:27:34.981Z,96.20
2019-04-01T04:30:05.239Z,96.20
2019-04-01T04:32:34.086Z,96.00
2019-04-01T04:35:03.104Z,96.00
2019-04-01T04:37:32.169Z,96.00
2019-04-01T04:40:01.056Z,96.00
2019-04-01T04:42:31.237Z,96.10
2019-04-01T04:45:00.023Z,96.00
2019-04-01T04:47:28.861Z,96.00
2019-04-01T04:49:57.748Z,95.90
2019-04-01T04:52:26.626Z,96.00
2019-04-01T04:54:55.490Z,96.00
2019-04-01T04:57:24.700Z,96.10
2019-04-01T04:59:53.521Z,96.10
2019-04-01T05:02:24.569Z,96.30
2019-04-01T05:04:52.969Z,96.20
2019-04-01T05:07:21.830Z,96.20
2019-04-01T05:09:50.682Z,96.30
2019-04-01T05:12:19.514Z,96.30
2019-04-01T05:14:51.173Z,96.30
2019-04-01T05:17:19.998Z,96.60
2019-04-01T05:19:48.845Z,96.50
2019-04-01T05:22:18.860Z,96.60
2019-04-01T05:24:48.261Z,96.60
2019-04-01T05:27:19.981Z,96.70
2019-04-01T05:29:51.162Z,96.60
2019-04-01T05:32:21.244Z,96.60
2019-04-01T05:34:51.845Z,96.60
2019-04-01T05:37:20.839Z,96.50
2019-04-01T05:39:53.106Z,96.40
2019-04-01T05:42:22.101Z,95.90
2019-04-01T05:44:50.995Z,96.00
2019-04-01T05:47:21.374Z,96.20
2019-04-01T05:49:50.215Z,95.80
2019-04-01T05:52:19.267Z,95.80
2019-04-01T05:54:48.091Z,95.90
2019-04-01T05:57:17.266Z,96.00
2019-04-01T05:59:46.887Z,95.50
2019-04-01T06:02:15.716Z,95.60
2019-04-01T06:04:44.546Z,95.40
2019-04-01T06:07:13.359Z,95.30
2019-04-01T06:09:42.566Z,95.10
2019-04-01T06:12:11.421Z,95.10
2019-04-01T06:14:40.219Z,95.10
2019-04-01T06:17:09.149Z,95.20
2019-04-01T06:19:37.988Z,95.30
2019-04-01T06:22:06.809Z,95.30
2019-04-01T06:24:35.634Z,95.30
2019-04-01T06:27:04.456Z,94.80
2019-04-01T06:29:33.385Z,94.70
2019-04-01T06:32:02.401Z,94.60
2019-04-01T06:34:31.238Z,94.60
2019-04-01T06:37:00.057Z,94.50
2019-04-01T06:39:28.859Z,94.30
2019-04-01T06:41:57.700Z,94.20
2019-04-01T06:44:26.517Z,94.20
2019-04-01T06:46:55.411Z,94.00
2019-04-01T06:49:24.484Z,93.90
2019-04-01T06:51:53.276Z,93.90
2019-04-01T06:54:22.153Z,94.00
2019-04-01T06:56:51.280Z,93.90
2019-04-01T06:59:20.399Z,93.90
2019-04-01T07:01:49.312Z,93.90
2019-04-01T07:04:18.962Z,93.90
2019-04-01T07:06:47.762Z,93.70
2019-04-01T07:09:16.621Z,93.40
2019-04-01T07:11:45.495Z,93.20
2019-04-01T07:14:14.653Z,93.10
2019-04-01T07:16:43.666Z,93.00
2019-04-01T07:19:12.640Z,92.90
2019-04-01T07:21:41.779Z,92.50
2019-04-01T07:24:10.596Z,92.70
2019-04-01T07:26:40.095Z,92.80
2019-04-01T07:29:08.988Z,92.60
2019-04-01T07:31:39.085Z,92.60
2019-04-01T07:34:08.138Z,92.60
2019-04-01T07:36:36.959Z,92.30
2019-04-01T07:39:07.080Z,92.00
2019-04-01T07:41:35.937Z,91.60
2019-04-01T07:44:05.054Z,91.50
2019-04-01T07:46:34.123Z,91.60
2019-04-01T07:49:03.132Z,91.60
2019-04-01T07:51:31.977Z,91.60
2019-04-01T07:54:01.011Z,91.80
2019-04-01T07:56:29.891Z,91.60
2019-04-01T07:58:58.841Z,91.50
2019-04-01T08:01:29.214Z,91.40
2019-04-01T08:03:58.553Z,91.90
2019-04-01T08:06:27.366Z,91.20
2019-04-01T08:08:56.195Z,90.60
2019-04-01T08:11:25.047Z,90.70
2019-04-01T08:13:53.880Z,90.60
2019-04-01T08:16:22.808Z,90.90
2019-04-01T08:18:51.786Z,90.20
2019-04-01T08:21:20.836Z,90.20
2019-04-01T08:23:49.903Z,90.30
2019-04-01T08:26:18.863Z,90.00
2019-04-01T08:28:47.973Z,88.60
2019-04-01T08:31:17.064Z,88.60
2019-04-01T08:33:46.103Z,89.80
2019-04-01T08:36:14.952Z,88.00
2019-04-01T08:38:43.863Z,87.40
2019-04-01T08:41:12.785Z,87.10
2019-04-01T08:43:41.701Z,87.60
2019-04-01T08:46:10.845Z,88.30
2019-04-01T08:48:39.764Z,85.40
2019-04-01T08:51:08.703Z,86.70
2019-04-01T08:53:37.617Z,85.90
2019-04-01T08:56:06.456Z,86.30
2019-04-01T08:58:35.508Z,85.10
2019-04-01T09:01:04.711Z,83.30
2019-04-01T09:03:34.554Z,84.40
2019-04-01T09:06:03.477Z,83.90
2019-04-01T09:08:34.196Z,82.10
2019-04-01T09:11:03.647Z,82.60
2019-04-01T09:13:32.851Z,83.10
2019-04-01T09:16:02.249Z,82.90
2019-04-01T09:18:31.139Z,83.50
2019-04-01T09:20:59.898Z,82.90
2019-04-01T09:23:28.707Z,80.90
2019-04-01T09:25:57.556Z,81.20
2019-04-01T09:28:26.469Z,81.70
2019-04-01T09:30:55.462Z,82.20
2019-04-01T09:33:24.293Z,83.50
2019-04-01T09:35:53.124Z,81.60
2019-04-01T09:38:21.956Z,81.30
2019-04-01T09:40:51.057Z,81.20
2019-04-01T09:43:19.879Z,81.60
2019-04-01T09:45:48.705Z,82.70
2019-04-01T09:48:17.562Z,84.60
2019-04-01T09:50:46.378Z,82.70
2019-04-01T09:53:16.674Z,83.00
2019-04-01T09:55:45.515Z,80.90
2019-04-01T09:58:14.349Z,81.50
2019-04-01T10:00:43.152Z,80.50
2019-04-01T10:03:11.982Z,81.90
2019-04-01T10:05:40.878Z,81.90
2019-04-01T10:08:09.648Z,80.70
2019-04-01T10:10:38.486Z,80.30
2019-04-01T10:13:07.337Z,80.60
2019-04-01T10:15:36.151Z,81.00
2019-04-01T10:18:05.016Z,81.00
2019-04-01T10:20:34.020Z,81.30
2019-04-01T10:23:02.915Z,82.40
2019-04-01T10:25:31.725Z,80.70
2019-04-01T10:28:00.890Z,80.50
2019-04-01T10:30:29.944Z,81.00
2019-04-01T10:33:02.008Z,80.10
2019-04-01T10:35:29.271Z,79.80
2019-04-01T10:37:58.090Z,80.20
2019-04-01T10:40:26.919Z,80.90
2019-04-01T10:42:55.848Z,80.80
2019-04-01T10:45:24.672Z,80.40
2019-04-01T10:47:54.010Z,80.10
2019-04-01T10:50:22.981Z,80.70
2019-04-01T10:52:51.817Z,79.80
2019-04-01T10:55:20.847Z,80.00
2019-04-01T10:57:53.428Z,78.90
2019-04-01T11:00:21.680Z,78.60
2019-04-01T11:02:50.509Z,79.30
2019-04-01T11:05:19.360Z,78.20
2019-04-01T11:07:48.195Z,78.70
2019-04-01T11:10:17.011Z,78.40
2019-04-01T11:12:45.840Z,77.90
2019-04-01T11:15:15.696Z,78.80
2019-04-01T11:17:44.911Z,79.30
2019-04-01T11:20:13.821Z,78.80
2019-04-01T11:22:42.782Z,83.00
2019-04-01T11:25:12.082Z,80.00
2019-04-01T11:27:40.885Z,80.00
2019-04-01T11:30:13.548Z,78.60
2019-04-01T11:32:41.010Z,78.30
2019-04-01T11:35:09.913Z,78.60
2019-04-01T11:37:38.757Z,78.20
2019-04-01T11:40:11.350Z,78.60
2019-04-01T11:42:40.433Z,78.60
2019-04-01T11:45:09.633Z,77.60
2019-04-01T11:47:38.646Z,78.70
2019-04-01T11:50:07.782Z,77.40
2019-04-01T11:52:38.081Z,78.30
2019-04-01T11:55:09.211Z,76.80
2019-04-01T11:57:38.500Z,77.60
2019-04-01T12:00:13.714Z,77.60
2019-04-01T12:02:42.731Z,76.70
2019-04-01T12:05:11.697Z,76.90
2019-04-01T12:07:40.542Z,77.00
2019-04-01T12:10:09.972Z,75.50
2019-04-01T12:12:38.776Z,74.90
2019-04-01T12:15:11.669Z,75.70
2019-04-01T12:17:41.617Z,76.10
2019-04-01T12:20:09.624Z,76.80
2019-04-01T12:22:39.730Z,77.00
2019-04-01T12:25:09.661Z,77.90
2019-04-01T12:27:38.579Z,78.50
2019-04-01T12:30:07.609Z,78.80
2019-04-01T12:32:36.485Z,77.80
2019-04-01T12:35:06.372Z,77.90
2019-04-01T12:37:35.197Z,78.10
2019-04-01T12:40:06.097Z,76.60
2019-04-01T12:42:34.926Z,77.10
2019-04-01T12:45:05.203Z,78.50
2019-04-01T12:47:34.034Z,78.20
2019-04-01T12:50:02.790Z,77.30
2019-04-01T12:52:31.637Z,77.80
2019-04-01T12:55:01.012Z,77.50
2019-04-01T12:57:30.176Z,79.30
2019-04-01T12:59:59.015Z,77.90
2019-04-01T13:02:27.833Z,78.60
2019-04-01T13:04:56.642Z,77.80
2019-04-01T13:07:25.482Z,77.50
2019-04-01T13:09:54.334Z,79.10
2019-04-01T13:12:23.158Z,78.70
2019-04-01T13:14:55.404Z,79.10
2019-04-01T13:17:22.578Z,78.30
2019-04-01T13:19:51.364Z,77.90
2019-04-01T13:22:20.155Z,76.50
2019-04-01T13:24:49.044Z,76.60
2019-04-01T13:27:17.814Z,76.90
2019-04-01T13:29:46.674Z,76.60
2019-04-01T13:32:15.571Z,77.20
2019-04-01T13:34:44.362Z,76.60
2019-04-01T13:37:13.229Z,76.70
2019-04-01T13:39:42.040Z,76.80
2019-04-01T13:42:10.868Z,76.50
2019-04-01T13:44:39.714Z,76.80
2019-04-01T13:47:08.538Z,77.60
2019-04-01T13:49:37.356Z,77.80
2019-04-01T13:52:06.731Z,77.30
2019-04-01T13:54:35.563Z,78.30
2019-04-01T13:57:06.790Z,78.20
2019-04-01T13:59:48.620Z,78.80
2019-04-01T14:02:06.199Z,78.80
2019-04-01T14:04:35.044Z,79.20
2019-04-01T14:07:03.905Z,80.70
2019-04-01T14:09:32.748Z,80.60
2019-04-01T14:12:01.555Z,81.30
2019-04-01T14:14:30.398Z,81.60
2019-04-01T14:16:59.196Z,81.40
2019-04-01T14:19:28.026Z,80.00
2019-04-01T14:21:56.868Z,79.10
2019-04-01T14:24:25.771Z,79.40
2019-04-01T14:26:56.595Z,79.20
2019-04-01T14:29:25.283Z,78.90
2019-04-01T14:31:54.082Z,77.60
2019-04-01T14:34:23.784Z,78.60
2019-04-01T14:36:52.870Z,78.00
2019-04-01T14:39:21.679Z,78.90
2019-04-01T14:41:50.496Z,79.70
2019-04-01T14:44:19.341Z,79.60
2019-04-01T14:46:48.165Z,79.60
2019-04-01T14:49:16.965Z,79.40
2019-04-01T14:51:45.806Z,79.30
2019-04-01T14:54:14.603Z,79.60
2019-04-01T14:56:43.450Z,81.00
2019-04-01T14:59:12.318Z,80.40
2019-04-01T15:01:42.731Z,80.40
2019-04-01T15:04:11.549Z,79.80
2019-04-01T15:06:41.460Z,80.90
2019-04-01T15:09:10.614Z,82.80
2019-04-01T15:11:39.436Z,82.80
2019-04-01T15:14:08.757Z,82.90
2019-04-01T15:16:37.788Z,85.00
2019-04-01T15:19:06.582Z,86.40
2019-04-01T15:21:35.412Z,86.60
2019-04-01T15:24:04.291Z,87.50
2019-04-01T15:26:33.957Z,87.30
2019-04-01T15:29:03.064Z,87.50
2019-04-01T15:31:31.889Z,88.10
2019-04-01T15:34:00.714Z,88.20
2019-04-01T15:36:29.579Z,88.50
2019-04-01T15:38:58.488Z,88.40
2019-04-01T15:41:27.374Z,88.80
2019-04-01T15:43:56.230Z,89.30
2019-04-01T15:46:25.124Z,89.70
2019-04-01T15:48:53.934Z,89.00
2019-04-01T15:51:22.783Z,89.40
2019-04-01T15:53:51.598Z,89.50
2019-04-01T15:56:20.550Z,90.00
2019-04-01T15:58:50.988Z,89.80
2019-04-01T16:01:19.945Z,90.40
2019-04-01T16:03:48.760Z,90.50
2019-04-01T16:06:17.594Z,90.70
2019-04-01T16:08:47.498Z,90.60
2019-04-01T16:11:16.330Z,90.70
2019-04-01T16:13:45.273Z,90.80
2019-04-01T16:16:14.691Z,90.80
2019-04-01T16:18:43.685Z,90.90
2019-04-01T16:21:12.530Z,90.70
2019-04-01T16:23:41.429Z,90.80
2019-04-01T16:26:10.276Z,90.70
2019-04-01T16:28:39.051Z,90.80
2019-04-01T16:31:07.858Z,90.70
2019-04-01T16:33:36.752Z,91.00
2019-04-01T16:36:05.614Z,90.70
2019-04-01T16:38:34.736Z,90.70
2019-04-01T16:41:03.604Z,91.10
2019-04-01T16:43:32.426Z,90.90
2019-04-01T16:46:01.242Z,90.90
2019-04-01T16:48:30.178Z,91.50
2019-04-01T16:50:59.092Z,91.40
2019-04-01T16:53:27.927Z,90.80
2019-04-01T16:55:56.725Z,90.70
2019-04-01T16:58:25.586Z,90.60
2019-04-01T17:00:54.959Z,90.30
2019-04-01T17:03:24.131Z,90.30
2019-04-01T17:05:53.363Z,90.40
2019-04-01T17:08:22.222Z,90.60
2019-04-01T17:10:51.065Z,90.80
2019-04-01T17:13:19.911Z,91.60
2019-04-01T17:15:48.875Z,91.60
2019-04-01T17:18:17.703Z,91.40
2019-04-01T17:20:46.668Z,91.30
2019-04-01T17:23:15.498Z,91.00
2019-04-01T17:25:44.327Z,91.20
2019-04-01T17:28:13.252Z,91.30
2019-04-01T17:30:42.116Z,91.60
2019-04-01T17:33:10.988Z,91.30
2019-04-01T17:35:39.796Z,91.30
2019-04-01T17:38:08.741Z,91.50
2019-04-01T17:40:37.527Z,91.40
2019-04-01T17:43:09.208Z,91.40
2019-04-01T17:45:38.485Z,91.80
2019-04-01T17:48:09.103Z,92.00
2019-04-01T17:50:38.214Z,92.10
2019-04-01T17:53:07.975Z,92.30
2019-04-01T17:55:36.994Z,92.10
2019-04-01T17:58:06.649Z,92.20
2019-04-01T18:00:37.237Z,92.70
2019-04-01T18:03:09.262Z,92.80
2019-04-01T18:05:36.925Z,92.70
2019-04-01T18:08:05.786Z,92.60
2019-04-01T18:10:34.613Z,92.90
2019-04-01T18:13:03.542Z,92.70
2019-04-01T18:15:32.378Z,92.60
2019-04-01T18:18:01.209Z,93.30
2019-04-01T18:20:30.047Z,93.50
2019-04-01T18:22:58.933Z,93.70
2019-04-01T18:25:27.770Z,94.00
2019-04-01T18:27:56.613Z,93.90
2019-04-01T18:30:25.753Z,93.40
2019-04-01T18:32:55.575Z,93.80
2019-04-01T18:35:25.468Z,93.80
2019-04-01T18:37:54.641Z,93.90
2019-04-01T18:40:32.751Z,93.40
2019-04-01T18:42:53.951Z,93.60
2019-04-01T18:45:22.793Z,93.70
2019-04-01T18:47:51.612Z,93.70
2019-04-01T18:50:20.450Z,93.50
2019-04-01T18:52:49.258Z,93.60
2019-04-01T18:55:18.200Z,93.40
2019-04-01T18:57:46.996Z,93.50
2019-04-01T19:00:15.827Z,93.00
2019-04-01T19:02:44.781Z,92.90
2019-04-01T19:05:13.951Z,92.80
2019-04-01T19:07:42.745Z,92.70
2019-04-01T19:10:13.123Z,92.90
2019-04-01T19:12:42.055Z,92.80
2019-04-01T19:15:11.208Z,92.80
2019-04-01T19:17:40.074Z,92.80
2019-04-01T19:20:14.088Z,93.00
2019-04-01T19:22:49.258Z,93.20
2019-04-01T19:25:23.064Z,92.70
2019-04-01T19:27:53.157Z,92.90
2019-04-01T19:30:24.229Z,93.00
2019-04-01T19:32:56.485Z,92.70
2019-04-01T19:35:25.356Z,92.60
2019-04-01T19:38:02.326Z,92.70
2019-04-01T19:40:34.970Z,92.70
2019-04-01T19:43:04.007Z,92.80
2019-04-01T19:45:36.107Z,92.70
2019-04-01T19:48:06.408Z,93.00
2019-04-01T19:50:35.198Z,92.80
2019-04-01T19:53:04.009Z,92.80
2019-04-01T19:55:34.221Z,92.80
2019-04-01T19:58:05.072Z,92.70
2019-04-01T20:00:33.807Z,92.90
2019-04-01T20:03:02.656Z,93.40
2019-04-01T20:05:31.668Z,93.70
2019-04-01T20:08:00.583Z,93.70
2019-04-01T20:10:29.618Z,93.40
2019-04-01T20:12:58.674Z,94.00
2019-04-01T20:15:27.666Z,94.10
2019-04-01T20:17:56.503Z,94.70
2019-04-01T20:20:25.425Z,94.90
2019-04-01T20:22:55.783Z,95.10
2019-04-01T20:25:24.668Z,94.60
2019-04-01T20:27:53.492Z,95.50
2019-04-01T20:30:29.653Z,95.40
2019-04-01T20:32:57.749Z,95.60
2019-04-01T20:35:28.149Z,95.60
2019-04-01T20:37:57.326Z,95.70
2019-04-01T20:40:27.106Z,95.30
2019-04-01T20:42:57.496Z,96.00
2019-04-01T20:45:26.343Z,96.30
2019-04-01T20:47:55.151Z,96.80
2019-04-01T20:50:24.075Z,96.30
2019-04-01T20:52:52.916Z,96.10
2019-04-01T20:55:21.709Z,96.30
2019-04-01T20:57:50.647Z,96.30
2019-04-01T21:00:20.101Z,96.20
2019-04-01T21:02:48.991Z,96.70
2019-04-01T21:05:17.997Z,96.50
2019-04-01T21:07:47.203Z,97.20
2019-04-01T21:10:17.475Z,96.20
2019-04-01T21:12:46.415Z,96.10
2019-04-01T21:15:15.749Z,96.80
2019-04-01T21:17:44.605Z,96.80
2019-04-01T21:20:13.708Z,96.80
2019-04-01T21:22:42.663Z,96.80
2019-04-01T21:25:11.806Z,96.50
2019-04-01T21:27:40.737Z,97.00
2019-04-01T21:30:10.887Z,96.70
2019-04-01T21:32:39.718Z,96.70
2019-04-01T21:35:09.510Z,96.70
2019-04-01T21:37:38.578Z,97.20
2019-04-01T21:40:08.879Z,96.80
2019-04-01T21:42:37.824Z,97.10
2019-04-01T21:45:08.397Z,97.40
2019-04-01T21:47:37.200Z,97.00
2019-04-01T21:50:07.910Z,96.70
2019-04-01T21:52:36.746Z,96.00
2019-04-01T21:55:08.630Z,95.90
2019-04-01T21:57:37.591Z,95.50
2019-04-01T22:00:12.112Z,95.40
2019-04-01T22:02:41.050Z,95.50
2019-04-01T22:05:10.386Z,95.60
2019-04-01T22:07:39.671Z,95.80
2019-04-01T22:10:09.080Z,95.80
2019-04-01T22:12:37.892Z,96.00
2019-04-01T22:15:06.921Z,96.00
2019-04-01T22:17:35.763Z,95.80
2019-04-01T22:20:06.420Z,95.90
2019-04-01T22:22:36.154Z,95.50
2019-04-01T22:25:06.223Z,95.50
2019-04-01T22:27:37.934Z,95.50
2019-04-01T22:30:08.015Z,96.10
2019-04-01T22:32:37.044Z,95.50
2019-04-01T22:35:07.954Z,95.60
2019-04-01T22:37:37.812Z,95.50
2019-04-01T22:40:07.841Z,95.70
2019-04-01T22:42:36.702Z,95.70
2019-04-01T22:45:07.025Z,96.20
2019-04-01T22:47:35.825Z,96.40
2019-04-01T22:50:06.447Z,96.40
2019-04-01T22:52:35.770Z,96.50
2019-04-01T22:55:05.836Z,96.50
2019-04-01T22:57:34.662Z,96.60
2019-04-01T23:00:04.549Z,96.60
2019-04-01T23:02:33.474Z,96.60
2019-04-01T23:05:02.276Z,96.50
2019-04-01T23:07:32.213Z,96.40
2019-04-01T23:10:01.681Z,96.00
2019-04-01T23:12:30.493Z,95.80
2019-04-01T23:14:59.343Z,95.80
2019-04-01T23:17:28.239Z,95.80
2019-04-01T23:19:56.995Z,95.80
2019-04-01T23:22:25.845Z,95.50
2019-04-01T23:24:54.707Z,95.60
2019-04-01T23:27:24.293Z,95.50
2019-04-01T23:29:53.690Z,95.60
2019-04-01T23:32:22.500Z,95.60
2019-04-01T23:34:52.933Z,95.80
2019-04-01T23:37:41.073Z,95.50
2019-04-01T23:40:10.747Z,95.80
2019-04-01T23:42:39.550Z,95.30
2019-04-01T23:45:08.777Z,95.50
2019-04-01T23:47:37.630Z,95.40
2019-04-01T23:50:09.182Z,95.30
2019-04-01T23:52:38.720Z,95.30
2019-04-01T23:55:08.223Z,95.50
2019-04-01T23:57:37.116Z,95.40
